createdAt,value
2023-04-27T00:01:14.279Z,10.50
2023-04-27T00:03:41.831Z,10.50
2023-04-27T00:06:09.260Z,10.50
2023-04-27T00:08:36.287Z,10.40
2023-04-27T00:11:03.368Z,10.20
2023-04-27T00:13:30.337Z,9.90
2023-04-27T00:15:57.349Z,9.80
2023-04-27T00:18:24.328Z,9.70
2023-04-27T00:20:51.239Z,9.60
2023-04-27T00:23:18.254Z,9.50
2023-04-27T00:25:45.142Z,9.60
2023-04-27T00:28:12.097Z,9.60
2023-04-27T00:30:39.034Z,9.60
2023-04-27T00:33:06.052Z,9.60
2023-04-27T00:35:33.554Z,9.60
2023-04-27T00:38:00.478Z,9.60
2023-04-27T00:40:27.445Z,9.60
2023-04-27T00:42:54.374Z,9.60
2023-04-27T00:45:21.388Z,9.60
2023-04-27T00:47:48.366Z,9.60
2023-04-27T00:50:15.402Z,9.50
2023-04-27T00:52:42.460Z,9.40
2023-04-27T00:55:09.508Z,9.30
2023-04-27T00:57:36.469Z,9.30
2023-04-27T01:00:04.034Z,9.40
2023-04-27T01:02:31.175Z,9.40
2023-04-27T01:04:58.163Z,9.50
2023-04-27T01:07:26.164Z,9.50
2023-04-27T01:09:53.225Z,9.50
2023-04-27T01:12:20.182Z,9.60
2023-04-27T01:14:47.170Z,9.50
2023-04-27T01:17:14.132Z,9.40
2023-04-27T01:19:41.283Z,9.20
2023-04-27T01:22:08.258Z,9.10
2023-04-27T01:24:35.305Z,9.00
2023-04-27T01:27:02.381Z,9.00
2023-04-27T01:29:29.285Z,8.90
2023-04-27T01:31:56.267Z,8.90
2023-04-27T01:34:23.265Z,9.00
2023-04-27T01:36:50.234Z,9.10
2023-04-27T01:39:17.151Z,9.20
2023-04-27T01:41:44.029Z,9.20
2023-04-27T01:44:10.962Z,9.10
2023-04-27T01:46:37.993Z,8.80
2023-04-27T01:49:04.993Z,8.80
2023-04-27T01:51:31.918Z,8.70
2023-04-27T01:53:59.017Z,8.80
2023-04-27T01:56:25.957Z,8.80
2023-04-27T01:58:55.964Z,8.80
2023-04-27T02:01:23.054Z,8.70
2023-04-27T02:03:50.190Z,8.90
2023-04-27T02:06:17.349Z,8.90
2023-04-27T02:08:44.247Z,8.80
2023-04-27T02:11:11.190Z,8.70
2023-04-27T02:13:38.103Z,8.70
2023-04-27T02:16:05.391Z,8.70
2023-04-27T02:18:32.762Z,8.70
2023-04-27T02:20:59.799Z,8.60
2023-04-27T02:23:26.745Z,8.50
2023-04-27T02:25:56.231Z,8.50
2023-04-27T02:28:23.148Z,8.50
2023-04-27T02:30:50.722Z,8.50
2023-04-27T02:33:17.576Z,8.70
2023-04-27T02:35:44.582Z,8.60
2023-04-27T02:38:11.502Z,8.60
2023-04-27T02:40:38.407Z,8.40
2023-04-27T02:43:05.316Z,8.30
2023-04-27T02:45:32.286Z,8.30
2023-04-27T02:47:59.328Z,8.20
2023-04-27T02:50:26.393Z,8.10
2023-04-27T02:52:55.696Z,8.00
2023-04-27T02:55:22.698Z,8.00
2023-04-27T02:57:49.732Z,8.00
2023-04-27T03:00:16.937Z,7.90
2023-04-27T03:02:44.209Z,7.90
2023-04-27T03:05:11.309Z,7.80
2023-04-27T03:07:38.281Z,7.80
2023-04-27T03:10:05.745Z,7.70
2023-04-27T03:12:32.796Z,7.70
2023-04-27T03:14:59.669Z,7.80
2023-04-27T03:17:27.264Z,7.70
2023-04-27T03:19:54.277Z,7.50
2023-04-27T03:22:21.239Z,7.50
2023-04-27T03:24:48.223Z,7.50
2023-04-27T03:27:15.231Z,7.60
2023-04-27T03:29:42.156Z,7.60
2023-04-27T03:32:09.245Z,7.60
2023-04-27T03:34:36.185Z,7.50
2023-04-27T03:37:03.111Z,7.50
2023-04-27T03:39:30.011Z,7.50
2023-04-27T03:41:56.868Z,7.50
2023-04-27T03:44:23.949Z,7.60
2023-04-27T03:46:50.890Z,7.40
2023-04-27T03:49:17.878Z,7.50
2023-04-27T03:51:45.123Z,7.50
2023-04-27T03:54:11.975Z,7.40
2023-04-27T03:56:38.896Z,7.40
2023-04-27T03:59:05.804Z,7.40
2023-04-27T04:01:32.775Z,7.30
2023-04-27T04:03:59.865Z,7.40
2023-04-27T04:06:26.992Z,7.50
2023-04-27T04:08:54.603Z,7.40
2023-04-27T04:11:21.528Z,7.30
2023-04-27T04:13:48.459Z,7.30
2023-04-27T04:16:15.437Z,7.30
2023-04-27T04:18:42.510Z,7.20
2023-04-27T04:21:10.050Z,7.30
2023-04-27T04:23:37.650Z,7.40
2023-04-27T04:26:04.715Z,7.40
2023-04-27T04:28:31.750Z,7.40
2023-04-27T04:30:58.705Z,7.50
2023-04-27T04:33:25.790Z,7.40
2023-04-27T04:35:52.740Z,7.50
2023-04-27T04:38:19.655Z,7.50
2023-04-27T04:40:46.612Z,7.60
2023-04-27T04:43:13.704Z,7.60
2023-04-27T04:45:40.686Z,7.70
2023-04-27T04:48:07.717Z,7.80
2023-04-27T04:50:34.623Z,7.90
2023-04-27T04:53:01.510Z,7.90
2023-04-27T04:55:28.456Z,7.90
2023-04-27T04:57:55.376Z,8.10
2023-04-27T05:00:22.647Z,8.20
2023-04-27T05:02:49.716Z,8.30
2023-04-27T05:05:16.861Z,8.40
2023-04-27T05:07:43.809Z,8.40
2023-04-27T05:10:10.879Z,8.60
2023-04-27T05:12:37.767Z,8.70
2023-04-27T05:15:05.646Z,8.80
2023-04-27T05:17:32.572Z,9.10
2023-04-27T05:19:59.598Z,11.60
2023-04-27T05:22:26.539Z,13.80
2023-04-27T05:24:53.467Z,14.50
2023-04-27T05:27:20.445Z,15.40
2023-04-27T05:29:47.313Z,15.90
2023-04-27T05:32:14.265Z,15.40
2023-04-27T05:34:41.185Z,14.20
2023-04-27T05:37:08.075Z,14.70
2023-04-27T05:39:35.072Z,16.30
2023-04-27T05:42:02.010Z,16.50
2023-04-27T05:44:28.935Z,17.00
2023-04-27T05:46:55.891Z,16.70
2023-04-27T05:49:23.380Z,16.00
2023-04-27T05:51:50.254Z,15.60
2023-04-27T05:54:17.217Z,16.80
2023-04-27T05:56:44.103Z,18.40
2023-04-27T05:59:11.047Z,20.10
2023-04-27T06:01:38.036Z,21.00
2023-04-27T06:04:05.139Z,20.20
2023-04-27T06:06:32.497Z,21.70
2023-04-27T06:08:59.455Z,23.30
2023-04-27T06:11:26.417Z,23.10
2023-04-27T06:13:53.269Z,23.00
2023-04-27T06:16:20.187Z,23.60
2023-04-27T06:18:48.506Z,23.80
2023-04-27T06:21:15.523Z,24.20
2023-04-27T06:23:42.408Z,24.60
2023-04-27T06:26:09.411Z,26.20
2023-04-27T06:28:36.340Z,27.10
2023-04-27T06:31:03.461Z,27.20
2023-04-27T06:33:30.368Z,28.40
2023-04-27T06:35:57.342Z,29.10
2023-04-27T06:38:24.312Z,29.40
2023-04-27T06:40:51.981Z,29.20
2023-04-27T06:43:19.144Z,28.40
2023-04-27T06:45:46.162Z,28.10
2023-04-27T06:48:13.249Z,27.70
2023-04-27T06:50:40.202Z,28.00
2023-04-27T06:53:07.186Z,28.10
2023-04-27T06:55:34.601Z,28.70
2023-04-27T06:58:02.167Z,27.90
2023-04-27T07:00:29.361Z,27.70
2023-04-27T07:02:56.365Z,28.10
2023-04-27T07:05:23.249Z,27.80
2023-04-27T07:07:50.239Z,28.50
2023-04-27T07:10:17.209Z,28.80
2023-04-27T07:12:44.158Z,29.40
2023-04-27T07:15:11.144Z,28.40
2023-04-27T07:17:38.312Z,28.90
2023-04-27T07:20:06.701Z,29.40
2023-04-27T07:22:34.074Z,29.40
2023-04-27T07:25:01.025Z,29.30
2023-04-27T07:27:27.938Z,29.90
2023-04-27T07:29:54.904Z,29.40
2023-04-27T07:32:22.204Z,30.50
2023-04-27T07:34:53.499Z,30.50
2023-04-27T07:37:22.245Z,30.60
2023-04-27T07:39:50.371Z,29.90
2023-04-27T07:42:17.781Z,30.00
2023-04-27T07:44:44.840Z,29.50
2023-04-27T07:47:11.770Z,29.60
2023-04-27T07:49:38.734Z,29.00
2023-04-27T07:52:05.853Z,29.60
2023-04-27T07:54:32.885Z,28.90
2023-04-27T07:56:59.789Z,28.50
2023-04-27T07:59:29.558Z,28.20
2023-04-27T08:02:07.135Z,27.90
2023-04-27T08:04:43.639Z,26.50
2023-04-27T08:07:11.257Z,26.40
2023-04-27T08:09:38.632Z,26.20
2023-04-27T08:12:05.708Z,26.70
2023-04-27T08:14:35.148Z,26.90
2023-04-27T08:17:02.378Z,27.10
2023-04-27T08:19:29.522Z,27.80
2023-04-27T08:21:56.555Z,27.50
2023-04-27T08:24:23.459Z,27.00
2023-04-27T08:26:50.388Z,26.20
2023-04-27T08:29:26.865Z,26.50
2023-04-27T08:31:56.932Z,27.00
2023-04-27T08:34:24.273Z,27.70
2023-04-27T08:36:51.211Z,27.20
2023-04-27T08:39:18.488Z,27.50
2023-04-27T08:41:45.570Z,27.30
2023-04-27T08:44:12.530Z,27.10
2023-04-27T08:46:39.682Z,26.40
2023-04-27T08:49:06.657Z,26.60
2023-04-27T08:51:33.898Z,26.00
2023-04-27T08:54:00.816Z,26.20
2023-04-27T08:56:29.303Z,25.90
2023-04-27T08:58:57.205Z,26.40
2023-04-27T09:01:24.862Z,26.10
2023-04-27T09:04:01.586Z,26.20
2023-04-27T09:06:33.774Z,25.70
2023-04-27T09:09:00.951Z,26.10
2023-04-27T09:11:32.899Z,25.90
2023-04-27T09:14:00.906Z,25.70
2023-04-27T09:16:29.114Z,25.60
2023-04-27T09:18:57.346Z,26.10
2023-04-27T09:21:28.421Z,25.90
2023-04-27T09:23:55.764Z,26.50
2023-04-27T09:26:27.387Z,26.10
2023-04-27T09:28:55.817Z,25.50
2023-04-27T09:31:30.760Z,26.20
2023-04-27T09:33:57.797Z,26.80
2023-04-27T09:36:25.077Z,26.60
2023-04-27T09:38:52.291Z,25.70
2023-04-27T09:41:19.713Z,25.80
2023-04-27T09:43:47.008Z,26.30
2023-04-27T09:46:14.614Z,26.40
2023-04-27T09:48:41.709Z,25.60
2023-04-27T09:51:08.938Z,25.30
2023-04-27T09:53:40.612Z,25.30
2023-04-27T09:56:16.736Z,24.70
2023-04-27T09:59:17.007Z,24.60
2023-04-27T10:01:50.127Z,24.60
2023-04-27T10:04:59.969Z,23.70
2023-04-27T10:07:27.373Z,23.30
2023-04-27T10:09:54.379Z,22.90
2023-04-27T10:12:33.871Z,23.50
2023-04-27T10:15:10.989Z,23.40
2023-04-27T10:17:38.136Z,23.80
2023-04-27T10:20:08.517Z,23.90
2023-04-27T10:22:49.058Z,23.90
2023-04-27T10:25:28.355Z,23.50
2023-04-27T10:28:00.394Z,23.50
2023-04-27T10:30:35.596Z,24.20
2023-04-27T10:33:08.765Z,24.60
2023-04-27T10:35:36.955Z,24.10
2023-04-27T10:38:11.516Z,24.20
2023-04-27T10:40:38.734Z,23.70
2023-04-27T10:43:13.527Z,23.10
2023-04-27T10:45:41.435Z,23.30
2023-04-27T10:48:08.575Z,23.40
2023-04-27T10:50:35.665Z,23.70
2023-04-27T10:53:06.882Z,24.10
2023-04-27T10:55:34.384Z,23.50
2023-04-27T10:58:01.631Z,23.40
2023-04-27T11:00:41.508Z,23.50
2023-04-27T11:03:10.760Z,23.40
2023-04-27T11:05:37.725Z,23.40
2023-04-27T11:08:09.699Z,23.90
2023-04-27T11:10:48.748Z,24.20
2023-04-27T11:13:17.666Z,24.50
2023-04-27T11:16:05.774Z,24.20
2023-04-27T11:18:32.802Z,23.70
2023-04-27T11:21:10.344Z,24.10
2023-04-27T11:23:37.505Z,23.60
2023-04-27T11:26:11.189Z,23.80
2023-04-27T11:28:38.442Z,23.90
2023-04-27T11:31:06.041Z,23.80
2023-04-27T11:33:33.112Z,23.70
2023-04-27T11:36:00.162Z,23.40
2023-04-27T11:38:32.630Z,23.50
2023-04-27T11:41:06.819Z,23.50
2023-04-27T11:43:33.906Z,23.00
2023-04-27T11:46:07.106Z,23.20
2023-04-27T11:48:36.754Z,23.10
2023-04-27T11:51:03.982Z,22.90
2023-04-27T11:53:40.085Z,22.70
2023-04-27T11:56:09.167Z,22.80
2023-04-27T11:58:36.947Z,23.20
2023-04-27T12:01:04.742Z,23.00
2023-04-27T12:03:32.086Z,22.70
2023-04-27T12:06:11.465Z,22.80
2023-04-27T12:08:43.460Z,22.70
2023-04-27T12:11:10.304Z,22.90
2023-04-27T12:13:37.171Z,23.00
2023-04-27T12:16:04.384Z,23.30
2023-04-27T12:18:31.381Z,22.80
2023-04-27T12:21:02.817Z,23.00
2023-04-27T12:23:30.268Z,22.80
2023-04-27T12:25:57.200Z,22.70
2023-04-27T12:28:24.079Z,22.80
2023-04-27T12:30:51.095Z,22.70
2023-04-27T12:33:18.092Z,22.50
2023-04-27T12:35:45.034Z,22.20
2023-04-27T12:38:11.945Z,22.40
2023-04-27T12:40:38.852Z,22.60
2023-04-27T12:43:07.041Z,22.70
2023-04-27T12:45:34.004Z,22.70
2023-04-27T12:48:03.404Z,23.00
2023-04-27T12:50:31.919Z,23.50
2023-04-27T12:52:58.966Z,23.40
2023-04-27T12:57:58.236Z,23.40
2023-04-27T13:00:25.223Z,22.90
2023-04-27T13:02:52.925Z,22.80
2023-04-27T13:05:20.730Z,23.00
2023-04-27T13:07:47.723Z,23.20
2023-04-27T13:10:14.732Z,23.20
2023-04-27T13:12:41.653Z,23.30
2023-04-27T13:15:09.556Z,23.20
2023-04-27T13:17:36.477Z,23.20
2023-04-27T13:20:03.646Z,23.10
2023-04-27T13:22:30.566Z,22.90
2023-04-27T13:24:57.476Z,23.20
2023-04-27T13:27:24.376Z,22.80
2023-04-27T13:29:51.525Z,23.00
2023-04-27T13:32:18.448Z,22.80
2023-04-27T13:34:45.381Z,22.50
2023-04-27T13:37:12.269Z,22.80
2023-04-27T13:39:39.126Z,23.00
2023-04-27T13:42:06.135Z,22.60
2023-04-27T13:44:33.041Z,22.70
2023-04-27T13:47:00.041Z,22.80
2023-04-27T13:49:27.008Z,23.00
2023-04-27T13:51:53.912Z,23.20
2023-04-27T13:54:21.114Z,23.30
2023-04-27T13:56:48.074Z,23.20
2023-04-27T13:59:15.258Z,23.20
2023-04-27T14:01:42.406Z,23.30
2023-04-27T14:04:09.456Z,23.50
2023-04-27T14:06:36.505Z,23.30
2023-04-27T14:09:03.545Z,23.30
2023-04-27T14:11:30.440Z,23.40
2023-04-27T14:13:57.329Z,23.20
2023-04-27T14:16:24.280Z,23.40
2023-04-27T14:18:51.180Z,23.30
2023-04-27T14:21:18.073Z,23.50
2023-04-27T14:23:44.973Z,23.60
2023-04-27T14:26:11.875Z,23.70
2023-04-27T14:28:38.761Z,23.60
2023-04-27T14:31:05.762Z,23.70
2023-04-27T14:33:32.659Z,23.70
2023-04-27T14:35:59.993Z,23.50
2023-04-27T14:38:26.863Z,23.60
2023-04-27T14:40:53.769Z,23.60
2023-04-27T14:43:20.863Z,23.70
2023-04-27T14:45:52.733Z,23.90
2023-04-27T14:48:22.503Z,24.10
2023-04-27T14:50:49.486Z,23.70
2023-04-27T14:53:16.436Z,23.70
2023-04-27T14:55:43.301Z,23.90
2023-04-27T14:58:10.222Z,23.80
2023-04-27T15:00:37.191Z,23.50
2023-04-27T15:03:04.437Z,23.50
2023-04-27T15:05:31.435Z,23.80
2023-04-27T15:07:58.290Z,23.90
2023-04-27T15:10:25.177Z,23.90
2023-04-27T15:12:52.041Z,23.80
2023-04-27T15:15:18.929Z,23.50
2023-04-27T15:17:45.949Z,23.50
2023-04-27T15:20:13.074Z,23.50
2023-04-27T15:22:40.017Z,23.70
2023-04-27T15:25:07.329Z,23.80
2023-04-27T15:27:34.235Z,23.90
2023-04-27T15:30:01.142Z,23.70
2023-04-27T15:32:27.990Z,23.60
2023-04-27T15:34:54.924Z,23.70
2023-04-27T15:37:21.868Z,23.70
2023-04-27T15:39:48.824Z,23.50
2023-04-27T15:42:15.715Z,23.50
2023-04-27T15:44:42.608Z,23.40
2023-04-27T15:47:09.556Z,23.40
2023-04-27T15:49:42.745Z,23.30
2023-04-27T15:52:20.839Z,23.50
2023-04-27T15:54:47.753Z,23.60
2023-04-27T15:57:14.658Z,23.60
2023-04-27T15:59:41.699Z,23.30
2023-04-27T16:02:08.662Z,23.50
2023-04-27T16:04:35.639Z,23.30
2023-04-27T16:07:02.580Z,23.40
2023-04-27T16:09:29.452Z,23.50
2023-04-27T16:11:56.459Z,23.40
2023-04-27T16:14:23.366Z,23.40
2023-04-27T16:16:50.329Z,23.40
2023-04-27T16:19:18.202Z,23.50
2023-04-27T16:21:45.308Z,23.10
2023-04-27T16:24:12.308Z,23.00
2023-04-27T16:26:39.262Z,23.00
2023-04-27T16:29:06.159Z,23.00
2023-04-27T16:31:33.080Z,23.00
2023-04-27T16:33:59.989Z,22.90
2023-04-27T16:36:26.877Z,22.80
2023-04-27T16:38:53.791Z,22.90
2023-04-27T16:41:21.041Z,23.00
2023-04-27T16:43:49.219Z,23.00
2023-04-27T16:46:16.226Z,23.00
2023-04-27T16:48:43.292Z,22.90
2023-04-27T16:51:10.250Z,22.70
2023-04-27T16:53:37.334Z,22.60
2023-04-27T16:56:04.576Z,22.60
2023-04-27T16:58:31.564Z,22.50
2023-04-27T17:00:58.514Z,22.50
2023-04-27T17:03:25.543Z,22.40
2023-04-27T17:05:52.818Z,22.30
2023-04-27T17:08:19.721Z,22.20
2023-04-27T17:10:46.601Z,22.30
2023-04-27T17:13:13.478Z,22.20
2023-04-27T17:15:40.617Z,22.20
2023-04-27T17:18:07.708Z,22.10
2023-04-27T17:20:34.683Z,22.10
2023-04-27T17:23:01.593Z,22.20
2023-04-27T17:25:28.580Z,22.10
2023-04-27T17:27:55.601Z,22.10
2023-04-27T17:30:22.730Z,22.10
2023-04-27T17:32:49.715Z,22.00
2023-04-27T17:35:16.695Z,21.90
2023-04-27T17:37:43.577Z,21.90
2023-04-27T17:40:11.278Z,21.80
2023-04-27T17:42:38.286Z,21.60
2023-04-27T17:45:05.812Z,21.50
2023-04-27T17:47:32.737Z,21.50
2023-04-27T17:49:59.606Z,21.50
2023-04-27T17:52:26.476Z,21.50
2023-04-27T17:54:53.349Z,21.40
2023-04-27T17:57:20.253Z,21.30
2023-04-27T17:59:47.112Z,21.30
2023-04-27T18:02:14.059Z,21.20
2023-04-27T18:04:41.060Z,21.10
2023-04-27T18:07:08.001Z,21.10
2023-04-27T18:09:34.941Z,21.00
2023-04-27T18:12:01.808Z,21.00
2023-04-27T18:14:28.744Z,20.80
2023-04-27T18:16:55.783Z,20.70
2023-04-27T18:19:22.966Z,20.60
2023-04-27T18:21:49.902Z,20.50
2023-04-27T18:24:16.782Z,20.30
2023-04-27T18:26:43.665Z,20.10
2023-04-27T18:29:10.564Z,19.90
2023-04-27T18:31:37.445Z,19.80
2023-04-27T18:34:04.380Z,19.60
2023-04-27T18:36:31.268Z,19.50
2023-04-27T18:38:58.157Z,19.30
2023-04-27T18:41:25.144Z,19.30
2023-04-27T18:43:52.090Z,19.20
2023-04-27T18:46:19.108Z,19.10
2023-04-27T18:48:46.036Z,19.10
2023-04-27T18:51:12.921Z,19.00
2023-04-27T18:53:39.846Z,18.90
2023-04-27T18:56:08.031Z,18.70
2023-04-27T18:58:35.828Z,18.60
2023-04-27T19:01:02.825Z,18.50
2023-04-27T19:03:29.935Z,18.30
2023-04-27T19:05:56.952Z,18.20
2023-04-27T19:08:23.885Z,18.10
2023-04-27T19:10:53.849Z,18.00
2023-04-27T19:13:20.768Z,17.90
2023-04-27T19:15:47.700Z,17.80
2023-04-27T19:18:14.596Z,17.60
2023-04-27T19:20:41.583Z,17.60
2023-04-27T19:23:08.600Z,17.50
2023-04-27T19:25:35.559Z,17.40
2023-04-27T19:28:02.465Z,17.40
2023-04-27T19:30:29.479Z,17.20
2023-04-27T19:32:56.507Z,17.20
2023-04-27T19:35:23.522Z,17.00
2023-04-27T19:37:50.610Z,17.00
2023-04-27T19:40:17.700Z,16.90
2023-04-27T19:42:44.606Z,16.80
2023-04-27T19:45:11.748Z,16.80
2023-04-27T19:47:38.680Z,16.70
2023-04-27T19:50:06.377Z,16.60
2023-04-27T19:52:33.288Z,16.50
2023-04-27T19:55:00.295Z,16.40
2023-04-27T19:57:27.264Z,16.30
2023-04-27T19:59:54.161Z,16.30
2023-04-27T20:02:21.294Z,16.20
2023-04-27T20:04:48.393Z,16.20
2023-04-27T20:07:15.681Z,16.10
2023-04-27T20:09:42.633Z,16.10
2023-04-27T20:12:19.378Z,16.10
2023-04-27T20:14:56.139Z,16.00
2023-04-27T20:17:23.108Z,15.90
2023-04-27T20:19:50.021Z,16.00
2023-04-27T20:22:16.962Z,16.00
2023-04-27T20:24:43.950Z,15.90
2023-04-27T20:27:10.914Z,15.90
2023-04-27T20:29:37.884Z,15.90
2023-04-27T20:32:05.357Z,15.90
2023-04-27T20:34:32.470Z,15.80
2023-04-27T20:36:59.388Z,15.80
2023-04-27T20:39:26.244Z,15.70
2023-04-27T20:41:53.123Z,15.70
2023-04-27T20:44:20.036Z,15.70
2023-04-27T20:46:46.910Z,15.70
2023-04-27T20:49:19.019Z,15.70
2023-04-27T20:51:48.781Z,15.70
2023-04-27T20:54:15.785Z,15.60
2023-04-27T20:56:42.812Z,15.50
2023-04-27T20:59:09.722Z,15.30
2023-04-27T21:01:36.664Z,15.40
2023-04-27T21:04:03.774Z,15.30
2023-04-27T21:06:30.887Z,15.30
2023-04-27T21:08:57.832Z,15.20
2023-04-27T21:11:25.195Z,15.20
2023-04-27T21:13:52.714Z,15.20
2023-04-27T21:16:19.654Z,15.20
2023-04-27T21:18:46.585Z,15.20
2023-04-27T21:21:13.688Z,15.20
2023-04-27T21:23:40.602Z,15.10
2023-04-27T21:26:07.727Z,15.00
2023-04-27T21:28:34.671Z,15.00
2023-04-27T21:31:01.652Z,15.00
2023-04-27T21:33:28.640Z,15.00
2023-04-27T21:35:55.512Z,15.00
2023-04-27T21:38:22.394Z,14.90
2023-04-27T21:40:49.218Z,14.90
2023-04-27T21:43:16.071Z,14.70
2023-04-27T21:45:42.989Z,14.70
2023-04-27T21:48:09.923Z,14.50
2023-04-27T21:50:36.861Z,14.30
2023-04-27T21:53:03.860Z,14.20
2023-04-27T21:55:30.743Z,14.20
2023-04-27T21:57:57.602Z,14.10
2023-04-27T22:00:24.583Z,14.10
2023-04-27T22:02:51.723Z,14.10
2023-04-27T22:05:19.665Z,14.10
2023-04-27T22:07:47.057Z,14.10
2023-04-27T22:10:13.965Z,14.10
2023-04-27T22:12:40.922Z,14.10
2023-04-27T22:15:08.674Z,14.10
2023-04-27T22:17:35.629Z,14.00
2023-04-27T22:20:02.612Z,14.00
2023-04-27T22:22:29.514Z,14.10
2023-04-27T22:24:56.398Z,14.10
2023-04-27T22:27:24.765Z,14.10
2023-04-27T22:29:53.186Z,14.30
2023-04-27T22:32:20.190Z,14.20
2023-04-27T22:34:47.165Z,14.10
2023-04-27T22:37:14.072Z,14.00
2023-04-27T22:39:41.008Z,14.00
2023-04-27T22:42:07.945Z,14.00
2023-04-27T22:44:34.901Z,14.00
2023-04-27T22:47:01.853Z,13.90
2023-04-27T22:49:28.955Z,13.80
2023-04-27T22:51:55.897Z,13.70
2023-04-27T22:54:23.149Z,13.40
2023-04-27T22:56:50.297Z,13.50
2023-04-27T22:59:17.205Z,13.50
2023-04-27T23:01:44.190Z,13.50
2023-04-27T23:04:11.260Z,13.50
2023-04-27T23:06:38.320Z,13.40
2023-04-27T23:09:05.290Z,13.50
2023-04-27T23:11:32.195Z,13.50
2023-04-27T23:13:59.159Z,13.50
2023-04-27T23:16:26.279Z,13.40
2023-04-27T23:18:53.175Z,13.20
2023-04-27T23:21:20.077Z,13.30
2023-04-27T23:23:47.018Z,13.20
2023-04-27T23:26:14.666Z,13.20
2023-04-27T23:28:41.758Z,13.10
2023-04-27T23:31:09.415Z,13.00
2023-04-27T23:33:36.399Z,12.80
2023-04-27T23:36:03.615Z,12.70
2023-04-27T23:38:30.480Z,12.60
2023-04-27T23:40:57.366Z,12.50
2023-04-27T23:43:24.301Z,12.50
2023-04-27T23:45:51.795Z,12.40
2023-04-27T23:48:19.258Z,12.40
2023-04-27T23:50:46.171Z,12.40
2023-04-27T23:53:13.055Z,12.30
2023-04-27T23:55:40.047Z,12.20
2023-04-27T23:58:06.977Z,12.20
